Time;durP1;ratioP1;P1;durP2;ratioP2;P2;SDS_P1;SDS_P2;PMS_P1;PMS_P2;Temp;Humidity;BMP_temperature;BMP_pressure;BME280_temperature;BME280_humidity;BME280_pressure;Samples;Min_cycle;Max_cycle;Signal;HPM_P1;HPM_P2
2022/10/12 00:00:17;;;;;;;0.40;0.40;;;;;;;;;;1920003;75;26234;-86
2022/10/12 00:02:44;;;;;;;0.23;0.23;;;;;;;;;;1919977;75;26687;-86
2022/10/12 00:05:12;;;;;;;1.47;0.40;;;;;;;;;;1918390;74;26743;-86
2022/10/12 00:07:39;;;;;;;0.37;0.30;;;;;;;;;;1919722;75;26845;-86
2022/10/12 00:10:06;;;;;;;0.33;0.33;;;;;;;;;;1919382;75;26211;-86
2022/10/12 00:12:34;;;;;;;0.47;0.33;;;;;;;;;;1918975;75;26226;-85
2022/10/12 00:15:01;;;;;;;0.30;0.30;;;;;;;;;;1919594;74;26247;-86
2022/10/12 00:17:28;;;;;;;0.37;0.37;;;;;;;;;;1919735;74;26707;-87
2022/10/12 00:19:55;;;;;;;0.30;0.30;;;;;;;;;;1919556;75;26755;-86
2022/10/12 00:22:23;;;;;;;0.65;0.35;;;;;;;;;;1931983;73;26289;-86
2022/10/12 00:24:52;;;;;;;0.30;0.30;;;;;;;;;;1948574;73;26271;-86
2022/10/12 00:27:19;;;;;;;0.47;0.30;;;;;;;;;;1947950;73;26280;-87
2022/10/12 00:29:47;;;;;;;0.20;0.20;;;;;;;;;;1919657;75;26226;-84
2022/10/12 00:32:14;;;;;;;0.30;0.20;;;;;;;;;;1887651;75;26272;-86
2022/10/12 00:34:41;;;;;;;0.25;0.25;;;;;;;;;;1895921;75;26222;-85
2022/10/12 00:37:09;;;;;;;0.30;0.30;;;;;;;;;;1919630;75;26290;-87
2022/10/12 00:39:37;;;;;;;0.20;0.20;;;;;;;;;;1898963;74;26967;-87
2022/10/12 00:42:04;;;;;;;0.30;0.30;;;;;;;;;;1895746;75;26282;-85
2022/10/12 00:44:36;;;;;;;0.20;0.20;;;;;;;;;;1908661;75;26310;-85
2022/10/12 00:47:05;;;;;;;0.10;0.10;;;;;;;;;;1870007;75;26264;-85
2022/10/12 00:49:32;;;;;;;0.30;0.30;;;;;;;;;;1895297;75;26902;-85
2022/10/12 00:52:01;;;;;;;0.20;0.20;;;;;;;;;;1907787;75;26242;-85
2022/10/12 00:54:31;;;;;;;0.20;0.20;;;;;;;;;;1909738;75;26667;-86
2022/10/12 00:56:59;;;;;;;0.20;0.20;;;;;;;;;;1909527;75;26291;-85
2022/10/12 00:59:28;;;;;;;0.23;0.23;;;;;;;;;;1896068;74;26230;-85
2022/10/12 01:01:55;;;;;;;0.30;0.30;;;;;;;;;;1912101;75;26250;-86
2022/10/12 01:04:23;;;;;;;0.95;0.30;;;;;;;;;;1897320;75;26229;-86
2022/10/12 01:06:51;;;;;;;0.10;0.10;;;;;;;;;;1890172;75;26228;-88
2022/10/12 01:09:19;;;;;;;0.20;0.20;;;;;;;;;;1906968;75;26292;-86
2022/10/12 01:11:46;;;;;;;0.23;0.23;;;;;;;;;;1885488;75;26249;-86
2022/10/12 01:14:14;;;;;;;0.20;0.20;;;;;;;;;;1907819;75;26261;-86
2022/10/12 01:16:43;;;;;;;0.23;0.20;;;;;;;;;;1887938;75;26249;-87
2022/10/12 01:19:27;;;;;;;0.23;0.17;;;;;;;;;;1866836;76;26337;-88
2022/10/12 01:21:58;;;;;;;0.20;0.20;;;;;;;;;;1860289;75;26356;-86
2022/10/12 01:24:45;;;;;;;0.40;0.40;;;;;;;;;;1903347;75;26298;-86
2022/10/12 01:27:20;;;;;;;0.20;0.20;;;;;;;;;;1907995;74;26189;-86
2022/10/12 01:30:06;;;;;;;0.20;0.20;;;;;;;;;;1904507;75;26224;-85
2022/10/12 01:32:35;;;;;;;0.30;0.30;;;;;;;;;;1909609;75;26788;-85
2022/10/12 01:35:06;;;;;;;0.40;0.30;;;;;;;;;;1906083;75;26679;-85
2022/10/12 01:37:41;;;;;;;0.30;0.30;;;;;;;;;;1881938;75;26235;-85
2022/10/12 01:40:10;;;;;;;0.20;0.20;;;;;;;;;;1893125;75;26286;-86
2022/10/12 01:42:39;;;;;;;0.20;0.20;;;;;;;;;;1920011;73;26238;-86
2022/10/12 01:45:08;;;;;;;0.30;0.30;;;;;;;;;;1919850;73;26195;-86
2022/10/12 01:47:36;;;;;;;0.20;0.20;;;;;;;;;;1918245;75;26300;-85
2022/10/12 01:50:04;;;;;;;0.20;0.20;;;;;;;;;;1916104;75;26663;-85
2022/10/12 01:52:33;;;;;;;0.20;0.20;;;;;;;;;;1919788;75;26241;-85
2022/10/12 01:55:02;;;;;;;0.30;0.30;;;;;;;;;;1919631;74;26295;-85
2022/10/12 01:57:36;;;;;;;0.30;0.30;;;;;;;;;;1920048;75;26202;-85
2022/10/12 02:00:11;;;;;;;0.30;0.30;;;;;;;;;;1917479;74;26242;-85
2022/10/12 02:02:40;;;;;;;0.40;0.37;;;;;;;;;;1919180;73;26246;-85
2022/10/12 02:05:25;;;;;;;0.53;0.30;;;;;;;;;;1920131;74;26292;-86
2022/10/12 02:07:54;;;;;;;0.17;0.10;;;;;;;;;;1906922;75;26214;-85
2022/10/12 02:10:23;;;;;;;0.20;0.20;;;;;;;;;;1906184;75;26702;-85
2022/10/12 02:12:51;;;;;;;0.40;0.40;;;;;;;;;;1918960;75;26685;-85
2022/10/12 02:15:19;;;;;;;0.28;0.28;;;;;;;;;;1919889;75;26512;-85
2022/10/12 02:17:49;;;;;;;0.28;0.28;;;;;;;;;;1920483;75;26271;-85
2022/10/12 02:20:17;;;;;;;0.20;0.20;;;;;;;;;;1920497;74;26727;-85
2022/10/12 02:22:46;;;;;;;0.30;0.30;;;;;;;;;;1903775;74;26362;-85
2022/10/12 02:25:15;;;;;;;0.20;0.20;;;;;;;;;;1887187;76;26248;-86
2022/10/12 02:27:44;;;;;;;0.30;0.30;;;;;;;;;;1886917;76;26277;-86
2022/10/12 02:30:11;;;;;;;0.10;0.10;;;;;;;;;;1885322;76;26327;-85
2022/10/12 02:32:40;;;;;;;0.30;0.30;;;;;;;;;;1890840;75;26690;-85
2022/10/12 02:35:09;;;;;;;0.30;0.30;;;;;;;;;;1933766;73;27176;-85
2022/10/12 02:37:37;;;;;;;0.30;0.30;;;;;;;;;;1942049;73;26671;-86
2022/10/12 02:40:23;;;;;;;0.23;0.23;;;;;;;;;;1885277;75;26359;-85
2022/10/12 02:42:51;;;;;;;0.15;0.15;;;;;;;;;;1914866;75;26226;-85
2022/10/12 02:45:20;;;;;;;0.20;0.20;;;;;;;;;;1919611;75;26324;-85
2022/10/12 02:47:48;;;;;;;0.45;0.30;;;;;;;;;;1942454;73;26712;-86
2022/10/12 02:50:16;;;;;;;0.20;0.20;;;;;;;;;;1948294;73;26722;-86
2022/10/12 02:52:44;;;;;;;0.30;0.30;;;;;;;;;;1945332;73;26271;-85
2022/10/12 02:55:11;;;;;;;0.28;0.28;;;;;;;;;;1948703;73;26701;-85
2022/10/12 02:57:38;;;;;;;0.30;0.30;;;;;;;;;;1948381;73;26214;-86
2022/10/12 03:00:06;;;;;;;0.75;0.20;;;;;;;;;;1948445;73;26291;-85
2022/10/12 03:02:33;;;;;;;0.20;0.20;;;;;;;;;;1948399;73;26495;-85
2022/10/12 03:05:01;;;;;;;0.20;0.20;;;;;;;;;;1923360;73;26210;-86
2022/10/12 03:07:28;;;;;;;0.25;0.25;;;;;;;;;;1914701;75;26255;-85
2022/10/12 03:09:55;;;;;;;0.30;0.30;;;;;;;;;;1914695;75;26243;-85
2022/10/12 03:12:23;;;;;;;0.33;0.33;;;;;;;;;;1914904;75;26245;-85
2022/10/12 03:14:51;;;;;;;0.25;0.25;;;;;;;;;;1915008;75;26669;-86
2022/10/12 03:17:18;;;;;;;0.47;0.30;;;;;;;;;;1901462;75;26405;-86
2022/10/12 03:19:45;;;;;;;0.55;0.20;;;;;;;;;;1910115;75;26222;-86
2022/10/12 03:22:12;;;;;;;0.30;0.30;;;;;;;;;;1919953;75;26222;-85
2022/10/12 03:24:40;;;;;;;0.20;0.20;;;;;;;;;;1920187;74;26182;-85
2022/10/12 03:27:07;;;;;;;0.30;0.30;;;;;;;;;;1919558;75;26261;-86
2022/10/12 03:29:36;;;;;;;0.30;0.30;;;;;;;;;;1916298;75;26250;-85
2022/10/12 03:32:04;;;;;;;0.30;0.30;;;;;;;;;;1919878;75;26226;-86
2022/10/12 03:34:31;;;;;;;0.20;0.20;;;;;;;;;;1907457;75;26343;-85
2022/10/12 03:36:58;;;;;;;0.30;0.30;;;;;;;;;;1887133;76;26209;-86
2022/10/12 03:39:25;;;;;;;0.28;0.28;;;;;;;;;;1894618;75;26226;-85
2022/10/12 03:41:53;;;;;;;0.30;0.30;;;;;;;;;;1874852;75;26351;-86
2022/10/12 03:44:20;;;;;;;0.20;0.20;;;;;;;;;;1877416;75;26239;-86
2022/10/12 03:46:47;;;;;;;0.20;0.20;;;;;;;;;;1895229;75;26247;-86
2022/10/12 03:49:14;;;;;;;1.55;0.30;;;;;;;;;;1895100;76;26738;-86
2022/10/12 03:51:42;;;;;;;0.28;0.28;;;;;;;;;;1905817;75;26719;-86
2022/10/12 03:54:09;;;;;;;0.10;0.10;;;;;;;;;;1907918;75;26224;-86
2022/10/12 03:56:36;;;;;;;0.10;0.10;;;;;;;;;;1899430;75;26223;-85
2022/10/12 03:59:04;;;;;;;0.30;0.30;;;;;;;;;;1906849;75;26684;-86
2022/10/12 04:01:31;;;;;;;0.30;0.30;;;;;;;;;;1909300;75;25421;-86
2022/10/12 04:03:58;;;;;;;0.28;0.28;;;;;;;;;;1904021;75;26286;-85
2022/10/12 04:06:26;;;;;;;0.30;0.30;;;;;;;;;;1909475;75;26243;-85
2022/10/12 04:08:53;;;;;;;0.10;0.10;;;;;;;;;;1911336;74;26261;-86
2022/10/12 04:11:20;;;;;;;0.20;0.20;;;;;;;;;;1911026;75;26758;-87
2022/10/12 04:13:48;;;;;;;0.30;0.30;;;;;;;;;;1896704;75;26300;-86
2022/10/12 04:16:15;;;;;;;0.20;0.20;;;;;;;;;;1906738;75;26230;-86
2022/10/12 04:18:42;;;;;;;0.10;0.10;;;;;;;;;;1907257;75;26179;-86
2022/10/12 04:21:12;;;;;;;0.28;0.28;;;;;;;;;;1912807;75;26288;-86
2022/10/12 04:23:40;;;;;;;0.40;0.40;;;;;;;;;;1909837;75;26257;-86
2022/10/12 04:26:07;;;;;;;0.20;0.20;;;;;;;;;;1912409;75;26284;-87
2022/10/12 04:28:35;;;;;;;0.30;0.30;;;;;;;;;;1908119;75;26234;-87
2022/10/12 04:31:02;;;;;;;2.60;0.40;;;;;;;;;;1900791;75;26779;-85
2022/10/12 04:33:29;;;;;;;1.00;0.23;;;;;;;;;;1905799;75;26216;-85
2022/10/12 04:35:56;;;;;;;0.30;0.30;;;;;;;;;;1909662;75;26223;-86
2022/10/12 04:38:24;;;;;;;0.30;0.30;;;;;;;;;;1909955;75;26222;-85
2022/10/12 04:40:51;;;;;;;2.55;0.53;;;;;;;;;;1913133;74;26706;-86
2022/10/12 04:43:18;;;;;;;0.50;0.30;;;;;;;;;;1916557;75;26298;-86
2022/10/12 04:45:47;;;;;;;0.35;0.35;;;;;;;;;;1918894;75;26217;-86
2022/10/12 04:48:14;;;;;;;0.30;0.30;;;;;;;;;;1919994;74;26242;-86
2022/10/12 04:50:42;;;;;;;0.23;0.23;;;;;;;;;;1920813;74;26295;-86
2022/10/12 04:53:10;;;;;;;0.30;0.30;;;;;;;;;;1919764;75;26695;-86
2022/10/12 04:55:37;;;;;;;0.40;0.40;;;;;;;;;;1923398;73;26912;-86
2022/10/12 04:58:05;;;;;;;0.62;0.40;;;;;;;;;;1940084;73;26786;-89
2022/10/12 05:00:32;;;;;;;0.30;0.30;;;;;;;;;;1928324;73;26225;-86
2022/10/12 05:02:59;;;;;;;0.90;0.30;;;;;;;;;;1931117;73;26271;-87
2022/10/12 05:05:26;;;;;;;0.40;0.40;;;;;;;;;;1925667;73;26314;-86
2022/10/12 05:07:54;;;;;;;0.45;0.30;;;;;;;;;;1924203;73;26785;-86
2022/10/12 05:10:21;;;;;;;1.82;0.80;;;;;;;;;;1927266;73;26224;-88
2022/10/12 05:12:49;;;;;;;0.50;0.50;;;;;;;;;;1916667;73;26274;-86
2022/10/12 05:15:16;;;;;;;0.85;0.53;;;;;;;;;;1920125;73;26695;-89
2022/10/12 05:17:43;;;;;;;3.05;0.62;;;;;;;;;;1926932;73;26318;-87
2022/10/12 05:20:11;;;;;;;0.50;0.50;;;;;;;;;;1922607;73;26298;-86
2022/10/12 05:22:39;;;;;;;0.95;0.60;;;;;;;;;;1918136;74;26812;-86
2022/10/12 05:25:06;;;;;;;2.35;0.60;;;;;;;;;;1922979;73;26299;-85
2022/10/12 05:27:34;;;;;;;1.12;0.70;;;;;;;;;;1919885;73;26286;-87
2022/10/12 05:30:01;;;;;;;2.90;0.98;;;;;;;;;;1922860;73;26697;-86
2022/10/12 05:32:28;;;;;;;3.87;0.80;;;;;;;;;;1919533;73;26712;-88
2022/10/12 05:34:56;;;;;;;1.25;1.02;;;;;;;;;;1919447;73;26673;-87
2022/10/12 05:37:23;;;;;;;1.17;0.50;;;;;;;;;;1920266;73;26224;-89
2022/10/12 05:39:50;;;;;;;3.47;0.72;;;;;;;;;;1923292;73;26263;-87
2022/10/12 05:42:18;;;;;;;1.37;0.90;;;;;;;;;;1911902;73;26269;-86
2022/10/12 05:44:45;;;;;;;2.58;1.10;;;;;;;;;;1904534;75;26261;-92
2022/10/12 05:47:12;;;;;;;0.62;0.62;;;;;;;;;;1908616;75;26230;-90
2022/10/12 05:49:39;;;;;;;2.02;0.80;;;;;;;;;;1906393;75;26292;-87
2022/10/12 05:52:07;;;;;;;0.95;0.72;;;;;;;;;;1908249;75;26258;-88
2022/10/12 05:54:34;;;;;;;0.50;0.50;;;;;;;;;;1898880;75;26257;-87
2022/10/12 05:57:01;;;;;;;0.70;0.70;;;;;;;;;;1899952;75;26659;-87
2022/10/12 05:59:28;;;;;;;1.37;0.90;;;;;;;;;;1902068;75;26771;-88
2022/10/12 06:01:56;;;;;;;2.83;0.70;;;;;;;;;;1908013;75;26215;-88
2022/10/12 06:04:23;;;;;;;1.32;0.72;;;;;;;;;;1907574;75;26277;-88
2022/10/12 06:06:50;;;;;;;1.98;0.80;;;;;;;;;;1907172;75;26169;-88
2022/10/12 06:09:18;;;;;;;0.70;0.70;;;;;;;;;;1908346;75;26611;-86
2022/10/12 06:11:45;;;;;;;0.72;0.72;;;;;;;;;;1905304;75;26329;-91
2022/10/12 06:14:13;;;;;;;0.75;0.70;;;;;;;;;;1897698;75;26184;-89
2022/10/12 06:16:40;;;;;;;1.57;0.88;;;;;;;;;;1898817;75;26337;-90
2022/10/12 06:19:09;;;;;;;0.93;0.90;;;;;;;;;;1909006;75;26274;-93
2022/10/12 06:21:36;;;;;;;2.75;0.70;;;;;;;;;;1904305;75;26224;-92
2022/10/12 06:24:04;;;;;;;0.80;0.80;;;;;;;;;;1907364;75;26899;-90
2022/10/12 06:26:31;;;;;;;0.70;0.70;;;;;;;;;;1906811;75;26230;-91
2022/10/12 06:28:59;;;;;;;9.85;0.80;;;;;;;;;;1903665;75;26272;-88
2022/10/12 06:31:27;;;;;;;0.85;0.70;;;;;;;;;;1906577;75;26900;-91
2022/10/12 06:33:54;;;;;;;1.70;0.80;;;;;;;;;;1908420;75;26538;-88
2022/10/12 06:36:22;;;;;;;2.65;0.60;;;;;;;;;;1903855;75;26303;-90
2022/10/12 06:38:50;;;;;;;1.07;0.62;;;;;;;;;;1905345;74;26347;-90
2022/10/12 06:41:17;;;;;;;0.70;0.70;;;;;;;;;;1898311;74;26687;-91
2022/10/12 06:43:44;;;;;;;2.33;0.75;;;;;;;;;;1902480;75;26281;-91
2022/10/12 06:46:11;;;;;;;0.72;0.60;;;;;;;;;;1910849;74;26241;-89
2022/10/12 06:48:39;;;;;;;3.80;0.70;;;;;;;;;;1902895;74;26261;-88
2022/10/12 06:51:06;;;;;;;1.77;0.70;;;;;;;;;;1895254;75;26286;-90
2022/10/12 06:53:33;;;;;;;1.35;0.60;;;;;;;;;;1918563;73;26299;-89
2022/10/12 06:56:08;;;;;;;0.90;0.70;;;;;;;;;;1886914;73;26280;-89
2022/10/12 06:58:35;;;;;;;0.85;0.60;;;;;;;;;;1941124;73;26286;-89
2022/10/12 07:01:03;;;;;;;2.80;0.70;;;;;;;;;;1918059;75;26233;-88
2022/10/12 07:03:30;;;;;;;1.95;0.70;;;;;;;;;;1925610;73;26223;-89
2022/10/12 07:06:08;;;;;;;2.83;0.65;;;;;;;;;;1929693;73;26690;-88
2022/10/12 07:08:36;;;;;;;2.22;1.32;;;;;;;;;;1889499;73;26261;-88
2022/10/12 07:11:03;;;;;;;2.72;1.00;;;;;;;;;;1905673;73;26596;-89
2022/10/12 07:13:31;;;;;;;3.08;0.72;;;;;;;;;;1936646;73;26202;-87
2022/10/12 07:15:59;;;;;;;0.60;0.60;;;;;;;;;;1918956;73;26226;-87
2022/10/12 07:18:26;;;;;;;2.45;0.85;;;;;;;;;;1915319;73;26274;-88
2022/10/12 07:20:56;;;;;;;3.10;1.12;;;;;;;;;;1912653;73;26194;-88
2022/10/12 07:23:23;;;;;;;5.15;0.80;;;;;;;;;;1911701;73;26273;-88
2022/10/12 07:25:52;;;;;;;6.10;0.75;;;;;;;;;;1915153;73;26220;-89
2022/10/12 07:28:20;;;;;;;1.80;0.78;;;;;;;;;;1892347;75;26236;-90
2022/10/12 07:30:47;;;;;;;3.75;0.80;;;;;;;;;;1905104;75;26683;-90
2022/10/12 07:33:15;;;;;;;4.95;0.93;;;;;;;;;;1905624;75;26243;-88
2022/10/12 07:35:42;;;;;;;4.75;0.72;;;;;;;;;;1912791;75;26285;-89
2022/10/12 07:38:10;;;;;;;2.47;0.70;;;;;;;;;;1906716;75;26281;-89
2022/10/12 07:40:37;;;;;;;4.30;0.70;;;;;;;;;;1912014;73;26373;-92
2022/10/12 07:43:04;;;;;;;4.37;1.00;;;;;;;;;;1908303;74;26330;-89
2022/10/12 07:45:32;;;;;;;1.95;0.70;;;;;;;;;;1921091;73;26231;-92
2022/10/12 07:48:00;;;;;;;2.58;0.72;;;;;;;;;;1906941;73;26255;-88
2022/10/12 07:50:27;;;;;;;2.02;0.75;;;;;;;;;;1909914;73;26290;-90
2022/10/12 07:53:03;;;;;;;1.55;0.65;;;;;;;;;;1906294;73;26227;-90
2022/10/12 07:55:23;;;;;;;2.85;0.70;;;;;;;;;;1915703;73;26285;-92
2022/10/12 07:57:53;;;;;;;0.60;0.60;;;;;;;;;;1904972;73;26231;-93
2022/10/12 08:00:21;;;;;;;3.20;0.80;;;;;;;;;;1914687;75;26289;-96
2022/10/12 08:02:48;;;;;;;3.52;0.70;;;;;;;;;;1909885;73;26220;-92
2022/10/12 08:05:29;;;;;;;3.62;0.70;;;;;;;;;;1888686;73;26264;-96
2022/10/12 08:07:49;;;;;;;3.55;0.95;;;;;;;;;;1896153;73;26779;-95
2022/10/12 08:10:13;;;;;;;1.17;0.60;;;;;;;;;;1911881;73;26348;-95
2022/10/12 08:12:45;;;;;;;1.77;0.72;;;;;;;;;;1918121;73;26231;-95
2022/10/12 08:15:12;;;;;;;2.77;0.80;;;;;;;;;;1875411;75;26324;-95
2022/10/12 08:17:39;;;;;;;2.80;0.78;;;;;;;;;;1913895;73;26318;-94
2022/10/12 08:20:08;;;;;;;2.58;0.62;;;;;;;;;;1890965;73;26260;-93
2022/10/12 08:22:35;;;;;;;4.37;0.65;;;;;;;;;;1900212;75;27185;-89
2022/10/12 08:25:02;;;;;;;0.53;0.53;;;;;;;;;;1902969;73;26415;-91
2022/10/12 08:27:31;;;;;;;3.08;0.50;;;;;;;;;;1912794;74;26341;-91
2022/10/12 08:29:58;;;;;;;0.85;0.70;;;;;;;;;;1910809;75;26231;-90
2022/10/12 08:32:26;;;;;;;0.62;0.62;;;;;;;;;;1896022;75;26322;-90
2022/10/12 08:34:53;;;;;;;2.40;0.70;;;;;;;;;;1862953;77;26227;-93
2022/10/12 08:37:31;;;;;;;2.17;0.70;;;;;;;;;;1917857;73;26264;-95
2022/10/12 08:40:00;;;;;;;0.75;0.75;;;;;;;;;;1912917;73;26291;-95
2022/10/12 08:42:32;;;;;;;0.47;0.47;;;;;;;;;;1913495;73;26329;-94
2022/10/12 08:45:00;;;;;;;1.27;0.40;;;;;;;;;;1920146;74;26327;-95
2022/10/12 08:47:35;;;;;;;0.30;0.30;;;;;;;;;;1928618;73;26280;-95
2022/10/12 08:50:04;;;;;;;0.53;0.50;;;;;;;;;;1907485;73;26791;-94
2022/10/12 08:52:33;;;;;;;2.00;0.60;;;;;;;;;;1912153;73;27010;-93
2022/10/12 08:55:02;;;;;;;0.78;0.55;;;;;;;;;;1906516;73;26258;-94
2022/10/12 08:57:29;;;;;;;1.45;0.50;;;;;;;;;;1906488;73;26273;-93
2022/10/12 08:59:58;;;;;;;0.50;0.50;;;;;;;;;;1921189;73;26277;-89
2022/10/12 09:02:32;;;;;;;3.08;0.70;;;;;;;;;;1940067;73;27335;-89
2022/10/12 09:05:01;;;;;;;0.70;0.55;;;;;;;;;;1918359;73;26244;-90
2022/10/12 09:07:36;;;;;;;0.75;0.68;;;;;;;;;;1918075;73;26245;-91
2022/10/12 09:10:05;;;;;;;0.75;0.45;;;;;;;;;;1915367;73;26344;-90
2022/10/12 09:12:45;;;;;;;1.52;0.70;;;;;;;;;;1914079;73;26309;-90
2022/10/12 09:15:23;;;;;;;1.12;0.50;;;;;;;;;;1914794;75;26695;-90
2022/10/12 09:17:52;;;;;;;0.40;0.40;;;;;;;;;;1925351;73;26367;-90
2022/10/12 09:20:24;;;;;;;0.40;0.40;;;;;;;;;;1901008;73;26356;-90
2022/10/12 09:22:53;;;;;;;0.85;0.50;;;;;;;;;;1907587;73;26255;-91
2022/10/12 09:25:21;;;;;;;1.55;0.55;;;;;;;;;;1911263;73;26275;-89
2022/10/12 09:27:49;;;;;;;1.57;0.53;;;;;;;;;;1868998;75;26255;-89
2022/10/12 09:30:17;;;;;;;0.53;0.40;;;;;;;;;;1893439;73;26309;-89
2022/10/12 09:32:51;;;;;;;1.02;0.60;;;;;;;;;;1919880;73;26292;-91
2022/10/12 09:35:19;;;;;;;0.30;0.30;;;;;;;;;;1900043;73;26309;-91
2022/10/12 09:37:47;;;;;;;0.65;0.50;;;;;;;;;;1915465;73;26774;-90
2022/10/12 09:40:16;;;;;;;0.50;0.50;;;;;;;;;;1908248;73;26677;-89
2022/10/12 09:42:44;;;;;;;0.70;0.60;;;;;;;;;;1920583;73;26727;-89
2022/10/12 09:45:13;;;;;;;1.60;0.57;;;;;;;;;;1893619;74;26353;-89
2022/10/12 09:47:40;;;;;;;1.30;0.60;;;;;;;;;;1891306;75;26357;-90
2022/10/12 09:50:08;;;;;;;0.42;0.40;;;;;;;;;;1894743;75;26312;-88
2022/10/12 09:52:36;;;;;;;0.60;0.60;;;;;;;;;;1894007;75;26355;-89
2022/10/12 09:55:08;;;;;;;2.17;0.70;;;;;;;;;;1884028;74;26252;-91
2022/10/12 09:57:37;;;;;;;1.50;0.65;;;;;;;;;;1885340;75;26765;-91
2022/10/12 10:00:07;;;;;;;0.80;0.70;;;;;;;;;;1904961;75;26250;-89
2022/10/12 10:02:36;;;;;;;1.22;0.68;;;;;;;;;;1908059;74;26220;-88
2022/10/12 10:05:07;;;;;;;3.02;1.02;;;;;;;;;;1900619;74;26259;-88
2022/10/12 10:07:35;;;;;;;0.80;0.80;;;;;;;;;;1900479;75;26651;-88
2022/10/12 10:10:08;;;;;;;0.70;0.70;;;;;;;;;;1906990;75;27382;-89
2022/10/12 10:12:40;;;;;;;1.27;0.82;;;;;;;;;;1909137;75;26745;-89
2022/10/12 10:15:08;;;;;;;1.37;0.90;;;;;;;;;;1874536;75;26299;-90
2022/10/12 10:17:36;;;;;;;1.20;1.10;;;;;;;;;;1909979;75;26769;-88
2022/10/12 10:20:05;;;;;;;3.15;1.10;;;;;;;;;;1907245;75;26274;-89
2022/10/12 10:22:32;;;;;;;2.02;1.20;;;;;;;;;;1910524;75;27439;-88
2022/10/12 10:25:00;;;;;;;2.77;1.27;;;;;;;;;;1891137;75;26245;-87
2022/10/12 10:27:36;;;;;;;2.15;1.45;;;;;;;;;;1910014;75;26733;-88
2022/10/12 10:30:05;;;;;;;2.37;1.50;;;;;;;;;;1911380;75;26262;-88
2022/10/12 10:32:32;;;;;;;4.92;1.87;;;;;;;;;;1871021;75;26330;-88
2022/10/12 10:35:03;;;;;;;3.42;1.90;;;;;;;;;;1895946;75;26230;-88
2022/10/12 10:37:31;;;;;;;5.60;2.37;;;;;;;;;;1908067;75;26215;-88
2022/10/12 10:39:59;;;;;;;3.85;2.22;;;;;;;;;;1911913;75;26680;-88
2022/10/12 10:42:28;;;;;;;6.53;2.15;;;;;;;;;;1898556;75;26823;-89
2022/10/12 10:45:00;;;;;;;4.55;2.52;;;;;;;;;;1891280;73;26276;-88
2022/10/12 10:47:28;;;;;;;6.70;2.30;;;;;;;;;;1915698;73;26269;-89
2022/10/12 10:49:59;;;;;;;4.25;2.33;;;;;;;;;;1916779;73;26697;-88
2022/10/12 10:52:28;;;;;;;5.28;2.22;;;;;;;;;;1918071;73;26727;-89
2022/10/12 10:54:57;;;;;;;7.05;2.65;;;;;;;;;;1920519;73;26235;-89
2022/10/12 10:57:24;;;;;;;5.50;2.00;;;;;;;;;;1916134;73;26311;-88
2022/10/12 10:59:56;;;;;;;6.83;2.45;;;;;;;;;;1918094;73;26752;-87
2022/10/12 11:02:33;;;;;;;5.08;2.40;;;;;;;;;;1921218;73;26345;-92
2022/10/12 11:05:05;;;;;;;4.60;2.37;;;;;;;;;;1917217;73;26860;-91
2022/10/12 11:07:34;;;;;;;6.53;2.42;;;;;;;;;;1936472;73;26291;-92
2022/10/12 11:10:03;;;;;;;5.00;1.85;;;;;;;;;;1934974;73;26355;-91
2022/10/12 11:12:34;;;;;;;5.92;2.67;;;;;;;;;;1921642;74;26816;-90
2022/10/12 11:15:09;;;;;;;3.65;2.08;;;;;;;;;;1917220;73;26240;-89
2022/10/12 11:17:41;;;;;;;4.47;1.72;;;;;;;;;;1921039;73;26247;-88
2022/10/12 11:20:12;;;;;;;5.78;2.17;;;;;;;;;;1920504;73;26693;-89
2022/10/12 11:22:50;;;;;;;3.22;1.77;;;;;;;;;;1861897;73;26222;-89
2022/10/12 11:25:28;;;;;;;7.62;1.82;;;;;;;;;;1919068;75;26314;-90
2022/10/12 11:27:56;;;;;;;3.77;1.82;;;;;;;;;;1925674;73;26270;-92
2022/10/12 11:30:24;;;;;;;3.25;1.62;;;;;;;;;;1937806;73;26283;-91
2022/10/12 11:32:56;;;;;;;5.22;2.00;;;;;;;;;;1927044;73;26695;-92
2022/10/12 11:35:28;;;;;;;3.47;1.35;;;;;;;;;;1924246;73;26307;-95
2022/10/12 11:37:57;;;;;;;2.00;1.50;;;;;;;;;;1922436;75;26274;-90
2022/10/12 11:40:26;;;;;;;2.47;1.65;;;;;;;;;;1926552;73;26276;-92
2022/10/12 11:42:54;;;;;;;4.55;1.40;;;;;;;;;;1918354;75;26345;-90
2022/10/12 11:45:23;;;;;;;1.40;1.30;;;;;;;;;;1921521;73;26876;-88
2022/10/12 11:47:52;;;;;;;2.37;1.10;;;;;;;;;;1920445;75;26693;-89
2022/10/12 11:50:30;;;;;;;2.80;1.70;;;;;;;;;;1924378;73;26682;-89
2022/10/12 11:52:59;;;;;;;1.92;1.40;;;;;;;;;;1912534;73;25647;-86
2022/10/12 11:55:33;;;;;;;2.50;1.40;;;;;;;;;;1918288;73;26264;-88
2022/10/12 11:58:02;;;;;;;1.25;1.15;;;;;;;;;;1916170;73;26205;-91
2022/10/12 12:00:36;;;;;;;3.65;1.30;;;;;;;;;;1911050;73;26230;-89
2022/10/12 12:03:04;;;;;;;2.27;1.15;;;;;;;;;;1919839;73;26298;-91
2022/10/12 12:05:32;;;;;;;1.10;1.05;;;;;;;;;;1907232;73;26192;-91
2022/10/12 12:07:59;;;;;;;1.17;1.00;;;;;;;;;;1914917;73;26379;-91
2022/10/12 12:10:34;;;;;;;1.10;0.90;;;;;;;;;;1931283;73;26278;-90
2022/10/12 12:13:10;;;;;;;1.20;1.10;;;;;;;;;;1914311;73;26750;-93
2022/10/12 12:15:36;;;;;;;1.37;0.90;;;;;;;;;;1911528;73;26367;-90
2022/10/12 12:18:05;;;;;;;0.78;0.78;;;;;;;;;;1915072;73;26796;-89
2022/10/12 12:20:36;;;;;;;0.88;0.88;;;;;;;;;;1899000;75;26668;-89
2022/10/12 12:23:04;;;;;;;0.90;0.90;;;;;;;;;;1901929;73;26276;-92
2022/10/12 12:25:32;;;;;;;0.90;0.70;;;;;;;;;;1914649;73;27540;-91
2022/10/12 12:28:01;;;;;;;1.50;0.80;;;;;;;;;;1918707;75;26294;-92
2022/10/12 12:30:33;;;;;;;0.80;0.80;;;;;;;;;;1915783;73;26354;-91
2022/10/12 12:33:01;;;;;;;0.85;0.70;;;;;;;;;;1907525;75;26211;-90
2022/10/12 12:35:37;;;;;;;0.65;0.65;;;;;;;;;;1905692;74;26251;-90
2022/10/12 12:38:09;;;;;;;0.80;0.80;;;;;;;;;;1907673;74;26360;-91
2022/10/12 12:43:57;;;;;;;0.70;0.70;;;;;;;;;;1922428;75;26312;-90
2022/10/12 12:46:26;;;;;;;0.53;0.53;;;;;;;;;;1915795;75;26334;-89
2022/10/12 12:48:55;;;;;;;1.12;0.70;;;;;;;;;;1918879;73;26270;-90
2022/10/12 12:51:28;;;;;;;0.60;0.60;;;;;;;;;;1920488;75;26765;-89
2022/10/12 12:53:57;;;;;;;0.60;0.60;;;;;;;;;;1929458;73;26290;-93
2022/10/12 12:56:44;;;;;;;0.60;0.60;;;;;;;;;;1905502;74;26261;-89
2022/10/12 12:59:13;;;;;;;2.00;0.57;;;;;;;;;;1909239;74;26345;-94
2022/10/12 13:01:42;;;;;;;0.42;0.42;;;;;;;;;;1935218;73;26282;-90
2022/10/12 13:04:16;;;;;;;0.80;0.65;;;;;;;;;;1902070;75;26226;-91
2022/10/12 13:07:02;;;;;;;0.50;0.50;;;;;;;;;;1912491;73;26263;-91
2022/10/12 13:09:43;;;;;;;0.40;0.40;;;;;;;;;;1945760;73;26323;-89
2022/10/12 13:12:12;;;;;;;0.60;0.40;;;;;;;;;;1917350;73;26672;-90
2022/10/12 13:14:56;;;;;;;1.35;0.40;;;;;;;;;;1916989;73;26721;-90
2022/10/12 13:17:41;;;;;;;0.50;0.50;;;;;;;;;;1921421;73;26286;-88
2022/10/12 13:20:28;;;;;;;0.40;0.40;;;;;;;;;;1920726;73;26879;-89
2022/10/12 13:22:56;;;;;;;0.20;0.20;;;;;;;;;;1914524;73;26212;-90
2022/10/12 13:25:34;;;;;;;0.40;0.40;;;;;;;;;;1918947;73;26330;-91
2022/10/12 13:28:03;;;;;;;0.45;0.30;;;;;;;;;;1921425;73;26357;-92
2022/10/12 13:30:41;;;;;;;0.40;0.28;;;;;;;;;;1918196;73;26619;-92
2022/10/12 13:33:10;;;;;;;0.33;0.33;;;;;;;;;;1902841;74;26290;-91
2022/10/12 13:35:41;;;;;;;5.22;0.30;;;;;;;;;;1917609;73;26301;-89
2022/10/12 13:38:16;;;;;;;0.30;0.30;;;;;;;;;;1907950;73;26235;-90
2022/10/12 13:40:45;;;;;;;0.25;0.25;;;;;;;;;;1912355;75;26828;-89
2022/10/12 13:43:19;;;;;;;0.55;0.42;;;;;;;;;;1906678;74;26743;-89
2022/10/12 13:45:47;;;;;;;0.47;0.35;;;;;;;;;;1882125;75;26783;-89
2022/10/12 13:48:18;;;;;;;0.30;0.30;;;;;;;;;;1882012;75;26277;-89
2022/10/12 13:50:52;;;;;;;0.28;0.28;;;;;;;;;;1875965;75;26339;-91
2022/10/12 13:53:20;;;;;;;1.05;0.30;;;;;;;;;;1877173;75;26797;-88
2022/10/12 13:55:51;;;;;;;0.33;0.30;;;;;;;;;;1879740;76;26293;-86
2022/10/12 13:58:23;;;;;;;0.20;0.20;;;;;;;;;;1874407;75;26290;-87
2022/10/12 14:00:51;;;;;;;0.30;0.30;;;;;;;;;;1862463;76;26312;-87
2022/10/12 14:03:20;;;;;;;0.20;0.20;;;;;;;;;;1861574;76;26731;-87
2022/10/12 14:05:47;;;;;;;0.20;0.20;;;;;;;;;;1884221;76;26312;-86
2022/10/12 14:08:16;;;;;;;0.20;0.20;;;;;;;;;;1876726;76;26216;-87
2022/10/12 14:10:44;;;;;;;0.57;0.30;;;;;;;;;;1877318;75;27669;-86
2022/10/12 14:13:14;;;;;;;0.10;0.10;;;;;;;;;;1873281;76;26253;-86
2022/10/12 14:15:42;;;;;;;0.13;0.13;;;;;;;;;;1882505;76;26241;-86
2022/10/12 14:18:36;;;;;;;1.27;0.30;;;;;;;;;;1881692;76;26226;-86
2022/10/12 14:21:07;;;;;;;0.53;0.30;;;;;;;;;;1882908;76;26793;-88
2022/10/12 14:23:34;;;;;;;0.30;0.30;;;;;;;;;;1877227;75;26714;-87
2022/10/12 14:26:02;;;;;;;0.90;0.40;;;;;;;;;;1858547;75;26306;-86
2022/10/12 14:28:31;;;;;;;1.30;0.40;;;;;;;;;;1877237;75;26317;-88
2022/10/12 14:30:58;;;;;;;0.23;0.23;;;;;;;;;;1876376;74;26285;-86
2022/10/12 14:33:26;;;;;;;1.45;0.30;;;;;;;;;;1879965;76;26391;-85
2022/10/12 14:35:55;;;;;;;0.88;0.40;;;;;;;;;;1876377;76;26775;-87
2022/10/12 15:52:43;;;;;;;0.25;0.25;;;;;;;;;;1906962;74;26352;-87
2022/10/12 15:55:18;;;;;;;0.40;0.40;;;;;;;;;;1918324;73;27013;-88
2022/10/12 15:57:45;;;;;;;0.33;0.33;;;;;;;;;;1917880;73;26251;-90
2022/10/12 16:00:13;;;;;;;0.90;0.40;;;;;;;;;;1917681;74;26292;-89
2022/10/12 16:02:41;;;;;;;0.30;0.30;;;;;;;;;;1912097;73;26659;-91
2022/10/12 16:05:15;;;;;;;0.30;0.30;;;;;;;;;;1900493;74;26319;-88
2022/10/12 16:07:43;;;;;;;0.20;0.20;;;;;;;;;;1917732;73;26721;-87
2022/10/12 16:10:13;;;;;;;0.30;0.30;;;;;;;;;;1907860;73;26241;-87
2022/10/12 16:12:40;;;;;;;0.20;0.20;;;;;;;;;;1908729;75;26309;-87